sensor_id;sensor_type;location;lat;lon;timestamp;temperature;humidity
29571;DHT22;16814;52.118;11.436;2023-03-14T00:02:02;9.90;99.90
29571;DHT22;16814;52.118;11.436;2023-03-14T00:04:28;9.90;99.90
29571;DHT22;16814;52.118;11.436;2023-03-14T00:06:53;9.80;99.90
29571;DHT22;16814;52.118;11.436;2023-03-14T00:09:19;9.70;99.90
29571;DHT22;16814;52.118;11.436;2023-03-14T00:11:44;9.70;99.90
29571;DHT22;16814;52.118;11.436;2023-03-14T00:14:11;9.80;99.90
29571;DHT22;16814;52.118;11.436;2023-03-14T00:16:37;9.90;99.90
29571;DHT22;16814;52.118;11.436;2023-03-14T00:19:02;9.90;99.90
29571;DHT22;16814;52.118;11.436;2023-03-14T00:21:28;9.90;99.90
29571;DHT22;16814;52.118;11.436;2023-03-14T00:23:53;9.80;99.90
29571;DHT22;16814;52.118;11.436;2023-03-14T00:26:21;9.80;99.90
29571;DHT22;16814;52.118;11.436;2023-03-14T00:28:50;9.70;99.90
29571;DHT22;16814;52.118;11.436;2023-03-14T00:31:16;9.70;99.90
29571;DHT22;16814;52.118;11.436;2023-03-14T00:33:42;9.60;99.90
29571;DHT22;16814;52.118;11.436;2023-03-14T00:36:17;9.70;99.90
29571;DHT22;16814;52.118;11.436;2023-03-14T00:38:44;9.80;99.90
29571;DHT22;16814;52.118;11.436;2023-03-14T00:41:13;9.70;99.90
29571;DHT22;16814;52.118;11.436;2023-03-14T00:43:39;9.70;99.90
29571;DHT22;16814;52.118;11.436;2023-03-14T00:46:05;9.70;99.90
29571;DHT22;16814;52.118;11.436;2023-03-14T00:48:32;9.70;99.90
29571;DHT22;16814;52.118;11.436;2023-03-14T00:50:57;9.70;99.90
29571;DHT22;16814;52.118;11.436;2023-03-14T00:53:23;9.70;99.90
29571;DHT22;16814;52.118;11.436;2023-03-14T00:55:49;9.80;99.90
29571;DHT22;16814;52.118;11.436;2023-03-14T00:58:16;9.70;99.90
29571;DHT22;16814;52.118;11.436;2023-03-14T01:00:42;9.70;99.90
29571;DHT22;16814;52.118;11.436;2023-03-14T01:03:09;9.70;99.90
29571;DHT22;16814;52.118;11.436;2023-03-14T01:05:35;9.70;99.90
29571;DHT22;16814;52.118;11.436;2023-03-14T01:08:01;9.70;99.90
29571;DHT22;16814;52.118;11.436;2023-03-14T01:10:27;9.60;99.90
29571;DHT22;16814;52.118;11.436;2023-03-14T01:12:53;9.60;99.90
29571;DHT22;16814;52.118;11.436;2023-03-14T01:15:18;9.70;99.90
29571;DHT22;16814;52.118;11.436;2023-03-14T01:17:44;9.60;99.90
29571;DHT22;16814;52.118;11.436;2023-03-14T01:20:12;9.50;99.90
29571;DHT22;16814;52.118;11.436;2023-03-14T01:22:38;9.60;99.90
29571;DHT22;16814;52.118;11.436;2023-03-14T01:25:10;9.60;99.90
29571;DHT22;16814;52.118;11.436;2023-03-14T01:27:36;9.60;99.90
29571;DHT22;16814;52.118;11.436;2023-03-14T01:30:03;9.50;99.90
29571;DHT22;16814;52.118;11.436;2023-03-14T01:32:29;9.50;99.90
29571;DHT22;16814;52.118;11.436;2023-03-14T01:34:54;9.50;99.90
29571;DHT22;16814;52.118;11.436;2023-03-14T01:37:20;9.50;99.90
29571;DHT22;16814;52.118;11.436;2023-03-14T01:39:46;9.50;99.90
29571;DHT22;16814;52.118;11.436;2023-03-14T01:42:12;9.70;99.90
29571;DHT22;16814;52.118;11.436;2023-03-14T01:44:49;9.70;99.90
29571;DHT22;16814;52.118;11.436;2023-03-14T01:47:15;9.80;99.90
29571;DHT22;16814;52.118;11.436;2023-03-14T01:49:41;9.80;99.90
29571;DHT22;16814;52.118;11.436;2023-03-14T01:54:50;9.90;99.90
29571;DHT22;16814;52.118;11.436;2023-03-14T01:57:24;9.90;99.90
29571;DHT22;16814;52.118;11.436;2023-03-14T02:02:29;10.00;99.90
29571;DHT22;16814;52.118;11.436;2023-03-14T02:04:56;10.00;99.90
29571;DHT22;16814;52.118;11.436;2023-03-14T02:07:33;10.00;99.90
29571;DHT22;16814;52.118;11.436;2023-03-14T02:10:02;10.00;99.90
29571;DHT22;16814;52.118;11.436;2023-03-14T02:12:28;10.00;99.90
29571;DHT22;16814;52.118;11.436;2023-03-14T02:14:54;9.90;99.90
29571;DHT22;16814;52.118;11.436;2023-03-14T02:17:20;9.90;99.90
29571;DHT22;16814;52.118;11.436;2023-03-14T02:22:42;9.90;99.90
29571;DHT22;16814;52.118;11.436;2023-03-14T02:27:47;9.90;99.90
29571;DHT22;16814;52.118;11.436;2023-03-14T02:30:25;10.00;99.90
29571;DHT22;16814;52.118;11.436;2023-03-14T02:33:04;9.90;99.90
29571;DHT22;16814;52.118;11.436;2023-03-14T02:35:35;9.90;99.90
29571;DHT22;16814;52.118;11.436;2023-03-14T02:38:24;9.90;99.90
29571;DHT22;16814;52.118;11.436;2023-03-14T02:40:53;9.90;99.90
29571;DHT22;16814;52.118;11.436;2023-03-14T02:43:18;9.90;99.90
29571;DHT22;16814;52.118;11.436;2023-03-14T02:45:46;9.90;99.90
29571;DHT22;16814;52.118;11.436;2023-03-14T02:48:28;9.90;99.90
29571;DHT22;16814;52.118;11.436;2023-03-14T02:50:57;9.90;99.90
29571;DHT22;16814;52.118;11.436;2023-03-14T02:53:34;9.90;99.90
29571;DHT22;16814;52.118;11.436;2023-03-14T02:56:00;9.80;99.90
29571;DHT22;16814;52.118;11.436;2023-03-14T02:58:26;9.80;99.90
29571;DHT22;16814;52.118;11.436;2023-03-14T03:00:52;9.70;99.90
29571;DHT22;16814;52.118;11.436;2023-03-14T03:03:18;9.70;99.90
29571;DHT22;16814;52.118;11.436;2023-03-14T03:05:50;9.70;99.90
29571;DHT22;16814;52.118;11.436;2023-03-14T03:08:17;9.70;99.90
29571;DHT22;16814;52.118;11.436;2023-03-14T03:10:43;9.70;99.90
29571;DHT22;16814;52.118;11.436;2023-03-14T03:13:08;9.70;99.90
29571;DHT22;16814;52.118;11.436;2023-03-14T03:15:34;9.70;99.90
29571;DHT22;16814;52.118;11.436;2023-03-14T03:17:59;9.70;99.90
29571;DHT22;16814;52.118;11.436;2023-03-14T03:20:25;9.70;99.90
29571;DHT22;16814;52.118;11.436;2023-03-14T03:22:51;9.70;99.90
29571;DHT22;16814;52.118;11.436;2023-03-14T03:25:17;9.70;99.90
29571;DHT22;16814;52.118;11.436;2023-03-14T03:27:42;9.70;99.90
29571;DHT22;16814;52.118;11.436;2023-03-14T03:30:08;9.70;99.90
29571;DHT22;16814;52.118;11.436;2023-03-14T03:32:34;9.70;99.90
29571;DHT22;16814;52.118;11.436;2023-03-14T03:35:01;9.70;99.90
29571;DHT22;16814;52.118;11.436;2023-03-14T03:37:26;9.70;99.90
29571;DHT22;16814;52.118;11.436;2023-03-14T03:39:52;9.70;99.90
29571;DHT22;16814;52.118;11.436;2023-03-14T03:42:18;9.70;99.90
29571;DHT22;16814;52.118;11.436;2023-03-14T03:44:44;9.70;99.90
29571;DHT22;16814;52.118;11.436;2023-03-14T03:47:10;9.70;99.90
29571;DHT22;16814;52.118;11.436;2023-03-14T03:49:35;9.60;99.90
29571;DHT22;16814;52.118;11.436;2023-03-14T03:52:01;9.60;99.90
29571;DHT22;16814;52.118;11.436;2023-03-14T03:54:26;9.60;99.90
29571;DHT22;16814;52.118;11.436;2023-03-14T03:56:54;9.60;99.90
29571;DHT22;16814;52.118;11.436;2023-03-14T03:59:19;9.50;99.90
29571;DHT22;16814;52.118;11.436;2023-03-14T04:01:45;9.50;99.90
29571;DHT22;16814;52.118;11.436;2023-03-14T04:04:11;9.50;99.90
29571;DHT22;16814;52.118;11.436;2023-03-14T04:06:37;9.50;99.90
29571;DHT22;16814;52.118;11.436;2023-03-14T04:09:03;9.40;99.90
29571;DHT22;16814;52.118;11.436;2023-03-14T04:11:28;9.40;99.90
29571;DHT22;16814;52.118;11.436;2023-03-14T04:13:54;9.50;99.90
29571;DHT22;16814;52.118;11.436;2023-03-14T04:16:21;9.40;99.90
29571;DHT22;16814;52.118;11.436;2023-03-14T04:18:48;9.40;99.90
29571;DHT22;16814;52.118;11.436;2023-03-14T04:21:13;9.50;99.90
29571;DHT22;16814;52.118;11.436;2023-03-14T04:23:39;9.50;99.90
29571;DHT22;16814;52.118;11.436;2023-03-14T04:26:05;9.50;99.90
29571;DHT22;16814;52.118;11.436;2023-03-14T04:28:30;9.50;99.90
29571;DHT22;16814;52.118;11.436;2023-03-14T04:30:56;9.50;99.90
29571;DHT22;16814;52.118;11.436;2023-03-14T04:33:21;9.50;99.90
29571;DHT22;16814;52.118;11.436;2023-03-14T04:35:47;9.50;99.90
29571;DHT22;16814;52.118;11.436;2023-03-14T04:38:15;9.50;99.90
29571;DHT22;16814;52.118;11.436;2023-03-14T04:40:41;9.50;99.90
29571;DHT22;16814;52.118;11.436;2023-03-14T04:43:08;9.50;99.90
29571;DHT22;16814;52.118;11.436;2023-03-14T04:45:35;9.60;99.90
29571;DHT22;16814;52.118;11.436;2023-03-14T04:48:01;9.60;99.90
29571;DHT22;16814;52.118;11.436;2023-03-14T04:50:26;9.60;99.90
29571;DHT22;16814;52.118;11.436;2023-03-14T04:52:52;9.50;99.90
29571;DHT22;16814;52.118;11.436;2023-03-14T04:55:17;9.60;99.90
29571;DHT22;16814;52.118;11.436;2023-03-14T04:57:43;9.60;99.90
29571;DHT22;16814;52.118;11.436;2023-03-14T05:00:09;9.50;99.90
29571;DHT22;16814;52.118;11.436;2023-03-14T05:02:35;9.60;99.90
29571;DHT22;16814;52.118;11.436;2023-03-14T05:05:00;9.60;99.90
29571;DHT22;16814;52.118;11.436;2023-03-14T05:07:26;9.60;99.90
29571;DHT22;16814;52.118;11.436;2023-03-14T05:09:51;9.60;99.90
29571;DHT22;16814;52.118;11.436;2023-03-14T05:12:18;9.60;99.90
29571;DHT22;16814;52.118;11.436;2023-03-14T05:14:44;9.70;99.90
29571;DHT22;16814;52.118;11.436;2023-03-14T05:17:10;9.70;99.90
29571;DHT22;16814;52.118;11.436;2023-03-14T05:19:35;9.60;99.90
29571;DHT22;16814;52.118;11.436;2023-03-14T05:22:02;9.60;99.90
29571;DHT22;16814;52.118;11.436;2023-03-14T05:24:27;9.60;99.90
29571;DHT22;16814;52.118;11.436;2023-03-14T05:26:53;9.60;99.90
29571;DHT22;16814;52.118;11.436;2023-03-14T05:29:18;9.60;99.90
29571;DHT22;16814;52.118;11.436;2023-03-14T05:31:44;9.60;99.90
29571;DHT22;16814;52.118;11.436;2023-03-14T05:34:09;9.60;99.90
29571;DHT22;16814;52.118;11.436;2023-03-14T05:36:35;9.60;99.90
29571;DHT22;16814;52.118;11.436;2023-03-14T05:39:00;9.50;99.90
29571;DHT22;16814;52.118;11.436;2023-03-14T05:41:26;9.60;99.90
29571;DHT22;16814;52.118;11.436;2023-03-14T05:43:51;9.60;99.90
29571;DHT22;16814;52.118;11.436;2023-03-14T05:46:17;9.60;99.90
29571;DHT22;16814;52.118;11.436;2023-03-14T05:48:42;9.60;99.90
29571;DHT22;16814;52.118;11.436;2023-03-14T05:51:08;9.70;99.90
29571;DHT22;16814;52.118;11.436;2023-03-14T05:53:34;9.60;99.90
29571;DHT22;16814;52.118;11.436;2023-03-14T05:55:59;9.60;99.90
29571;DHT22;16814;52.118;11.436;2023-03-14T05:58:25;9.70;99.90
29571;DHT22;16814;52.118;11.436;2023-03-14T06:00:51;9.60;99.90
29571;DHT22;16814;52.118;11.436;2023-03-14T06:03:16;9.60;99.90
29571;DHT22;16814;52.118;11.436;2023-03-14T06:05:42;9.60;99.90
29571;DHT22;16814;52.118;11.436;2023-03-14T06:08:07;9.60;99.90
29571;DHT22;16814;52.118;11.436;2023-03-14T06:10:35;9.70;99.90
29571;DHT22;16814;52.118;11.436;2023-03-14T06:13:01;9.60;99.90
29571;DHT22;16814;52.118;11.436;2023-03-14T06:15:26;9.60;99.90
29571;DHT22;16814;52.118;11.436;2023-03-14T06:17:54;9.60;99.90
29571;DHT22;16814;52.118;11.436;2023-03-14T06:20:20;9.60;99.90
29571;DHT22;16814;52.118;11.436;2023-03-14T06:22:45;9.60;99.90
29571;DHT22;16814;52.118;11.436;2023-03-14T06:25:11;9.70;99.90
29571;DHT22;16814;52.118;11.436;2023-03-14T06:27:36;9.70;99.90
29571;DHT22;16814;52.118;11.436;2023-03-14T06:30:02;9.70;99.90
29571;DHT22;16814;52.118;11.436;2023-03-14T06:32:28;9.80;99.90
29571;DHT22;16814;52.118;11.436;2023-03-14T06:34:53;9.70;99.90
29571;DHT22;16814;52.118;11.436;2023-03-14T06:37:19;9.70;99.90
29571;DHT22;16814;52.118;11.436;2023-03-14T06:39:45;9.80;99.90
29571;DHT22;16814;52.118;11.436;2023-03-14T06:42:10;9.90;99.90
29571;DHT22;16814;52.118;11.436;2023-03-14T06:44:36;9.90;99.90
29571;DHT22;16814;52.118;11.436;2023-03-14T06:47:01;10.00;99.90
29571;DHT22;16814;52.118;11.436;2023-03-14T06:49:27;10.00;99.90
29571;DHT22;16814;52.118;11.436;2023-03-14T06:51:53;9.90;99.90
29571;DHT22;16814;52.118;11.436;2023-03-14T06:54:18;9.90;99.90
29571;DHT22;16814;52.118;11.436;2023-03-14T06:56:44;9.80;99.90
29571;DHT22;16814;52.118;11.436;2023-03-14T06:59:09;9.80;99.90
29571;DHT22;16814;52.118;11.436;2023-03-14T07:01:35;9.80;99.90
29571;DHT22;16814;52.118;11.436;2023-03-14T07:04:01;9.70;99.90
29571;DHT22;16814;52.118;11.436;2023-03-14T07:06:27;9.70;99.90
29571;DHT22;16814;52.118;11.436;2023-03-14T07:08:55;9.80;99.90
29571;DHT22;16814;52.118;11.436;2023-03-14T07:11:21;9.80;99.90
29571;DHT22;16814;52.118;11.436;2023-03-14T07:13:46;9.90;99.90
29571;DHT22;16814;52.118;11.436;2023-03-14T07:16:12;10.20;99.90
29571;DHT22;16814;52.118;11.436;2023-03-14T07:18:37;10.80;99.90
29571;DHT22;16814;52.118;11.436;2023-03-14T07:21:04;11.00;99.90
29571;DHT22;16814;52.118;11.436;2023-03-14T07:23:30;11.80;99.90
29571;DHT22;16814;52.118;11.436;2023-03-14T07:25:56;13.30;99.90
29571;DHT22;16814;52.118;11.436;2023-03-14T07:28:21;14.70;99.90
29571;DHT22;16814;52.118;11.436;2023-03-14T07:30:48;16.20;99.90
29571;DHT22;16814;52.118;11.436;2023-03-14T07:33:14;17.30;99.90
29571;DHT22;16814;52.118;11.436;2023-03-14T07:35:40;18.10;99.90
29571;DHT22;16814;52.118;11.436;2023-03-14T07:38:06;18.20;99.90
29571;DHT22;16814;52.118;11.436;2023-03-14T07:40:31;18.30;99.90
29571;DHT22;16814;52.118;11.436;2023-03-14T07:42:57;18.80;99.90
29571;DHT22;16814;52.118;11.436;2023-03-14T07:45:22;18.90;99.90
29571;DHT22;16814;52.118;11.436;2023-03-14T07:47:48;19.00;99.90
29571;DHT22;16814;52.118;11.436;2023-03-14T07:50:14;19.00;99.90
29571;DHT22;16814;52.118;11.436;2023-03-14T07:52:39;18.70;99.90
29571;DHT22;16814;52.118;11.436;2023-03-14T07:55:05;18.60;99.90
29571;DHT22;16814;52.118;11.436;2023-03-14T07:57:31;17.60;99.90
29571;DHT22;16814;52.118;11.436;2023-03-14T07:59:57;16.60;99.90
29571;DHT22;16814;52.118;11.436;2023-03-14T08:02:22;15.70;99.90
29571;DHT22;16814;52.118;11.436;2023-03-14T08:04:49;15.00;99.90
29571;DHT22;16814;52.118;11.436;2023-03-14T08:07:15;14.30;99.90
29571;DHT22;16814;52.118;11.436;2023-03-14T08:09:41;13.80;99.90
29571;DHT22;16814;52.118;11.436;2023-03-14T08:12:06;13.70;99.90
29571;DHT22;16814;52.118;11.436;2023-03-14T08:14:32;14.00;99.90
29571;DHT22;16814;52.118;11.436;2023-03-14T08:16:58;14.20;99.90
29571;DHT22;16814;52.118;11.436;2023-03-14T08:19:23;14.30;99.90
29571;DHT22;16814;52.118;11.436;2023-03-14T08:21:50;14.10;99.90
29571;DHT22;16814;52.118;11.436;2023-03-14T08:24:15;14.00;99.90
29571;DHT22;16814;52.118;11.436;2023-03-14T08:26:41;14.10;99.90
29571;DHT22;16814;52.118;11.436;2023-03-14T08:29:06;14.10;99.90
29571;DHT22;16814;52.118;11.436;2023-03-14T08:31:34;14.10;99.90
29571;DHT22;16814;52.118;11.436;2023-03-14T08:34:01;14.00;99.90
29571;DHT22;16814;52.118;11.436;2023-03-14T08:36:27;13.90;99.90
29571;DHT22;16814;52.118;11.436;2023-03-14T08:38:53;13.80;99.90
29571;DHT22;16814;52.118;11.436;2023-03-14T08:41:19;13.70;99.90
29571;DHT22;16814;52.118;11.436;2023-03-14T08:43:44;13.50;99.90
29571;DHT22;16814;52.118;11.436;2023-03-14T08:46:10;13.40;99.90
29571;DHT22;16814;52.118;11.436;2023-03-14T08:48:35;13.30;99.90
29571;DHT22;16814;52.118;11.436;2023-03-14T08:51:13;13.30;99.90
29571;DHT22;16814;52.118;11.436;2023-03-14T08:53:39;13.40;99.90
29571;DHT22;16814;52.118;11.436;2023-03-14T08:56:05;13.50;99.90
29571;DHT22;16814;52.118;11.436;2023-03-14T08:58:32;13.50;99.90
29571;DHT22;16814;52.118;11.436;2023-03-14T09:00:58;13.70;99.90
29571;DHT22;16814;52.118;11.436;2023-03-14T09:03:24;13.80;99.90
29571;DHT22;16814;52.118;11.436;2023-03-14T09:05:51;14.00;99.90
29571;DHT22;16814;52.118;11.436;2023-03-14T09:08:16;14.10;99.90
29571;DHT22;16814;52.118;11.436;2023-03-14T09:10:42;14.20;99.90
29571;DHT22;16814;52.118;11.436;2023-03-14T09:13:07;14.20;99.90
29571;DHT22;16814;52.118;11.436;2023-03-14T09:15:33;14.10;99.90
29571;DHT22;16814;52.118;11.436;2023-03-14T09:18:00;14.00;99.90
29571;DHT22;16814;52.118;11.436;2023-03-14T09:20:26;13.90;99.90
29571;DHT22;16814;52.118;11.436;2023-03-14T09:22:52;13.90;99.90
29571;DHT22;16814;52.118;11.436;2023-03-14T09:25:17;13.80;99.90
29571;DHT22;16814;52.118;11.436;2023-03-14T09:27:43;13.90;99.90
29571;DHT22;16814;52.118;11.436;2023-03-14T09:30:09;13.80;99.90
29571;DHT22;16814;52.118;11.436;2023-03-14T09:32:36;13.70;99.90
29571;DHT22;16814;52.118;11.436;2023-03-14T09:35:01;13.60;99.90
29571;DHT22;16814;52.118;11.436;2023-03-14T09:37:27;13.40;99.90
29571;DHT22;16814;52.118;11.436;2023-03-14T09:39:52;13.30;99.90
29571;DHT22;16814;52.118;11.436;2023-03-14T09:42:22;13.30;99.90
29571;DHT22;16814;52.118;11.436;2023-03-14T09:47:19;13.20;99.90
29571;DHT22;16814;52.118;11.436;2023-03-14T09:49:45;13.10;99.90
29571;DHT22;16814;52.118;11.436;2023-03-14T09:52:33;13.20;99.90
29571;DHT22;16814;52.118;11.436;2023-03-14T09:55:15;13.20;99.90
29571;DHT22;16814;52.118;11.436;2023-03-14T09:57:41;13.30;99.90
29571;DHT22;16814;52.118;11.436;2023-03-14T10:02:41;13.30;99.90
29571;DHT22;16814;52.118;11.436;2023-03-14T10:05:18;13.30;99.90
29571;DHT22;16814;52.118;11.436;2023-03-14T10:07:45;13.30;99.90
29571;DHT22;16814;52.118;11.436;2023-03-14T10:10:21;13.40;99.90
29571;DHT22;16814;52.118;11.436;2023-03-14T10:13:39;13.30;99.90
29571;DHT22;16814;52.118;11.436;2023-03-14T10:15:41;13.30;99.90
29571;DHT22;16814;52.118;11.436;2023-03-14T10:18:13;13.20;99.90
29571;DHT22;16814;52.118;11.436;2023-03-14T10:20:41;13.30;99.90
29571;DHT22;16814;52.118;11.436;2023-03-14T10:25:43;13.60;99.90
29571;DHT22;16814;52.118;11.436;2023-03-14T10:28:24;13.50;99.90
29571;DHT22;16814;52.118;11.436;2023-03-14T10:30:50;13.60;99.90
29571;DHT22;16814;52.118;11.436;2023-03-14T10:33:20;13.70;99.90
29571;DHT22;16814;52.118;11.436;2023-03-14T10:35:52;13.60;99.90
29571;DHT22;16814;52.118;11.436;2023-03-14T10:38:18;13.50;99.90
29571;DHT22;16814;52.118;11.436;2023-03-14T10:40:51;13.60;99.90
29571;DHT22;16814;52.118;11.436;2023-03-14T10:43:22;13.50;99.90
29571;DHT22;16814;52.118;11.436;2023-03-14T10:45:55;13.50;99.90
29571;DHT22;16814;52.118;11.436;2023-03-14T10:48:35;13.50;99.90
29571;DHT22;16814;52.118;11.436;2023-03-14T10:53:26;13.30;99.90
29571;DHT22;16814;52.118;11.436;2023-03-14T10:55:53;13.30;99.90
29571;DHT22;16814;52.118;11.436;2023-03-14T10:58:27;13.30;99.90
29571;DHT22;16814;52.118;11.436;2023-03-14T11:04:25;13.30;99.90
29571;DHT22;16814;52.118;11.436;2023-03-14T11:07:09;13.20;99.90
29571;DHT22;16814;52.118;11.436;2023-03-14T11:09:56;13.10;99.90
29571;DHT22;16814;52.118;11.436;2023-03-14T11:15:48;13.10;99.90
29571;DHT22;16814;52.118;11.436;2023-03-14T11:20:55;13.30;99.90
29571;DHT22;16814;52.118;11.436;2023-03-14T11:26:37;13.40;99.90
29571;DHT22;16814;52.118;11.436;2023-03-14T11:29:20;13.60;99.90
29571;DHT22;16814;52.118;11.436;2023-03-14T11:31:46;13.60;99.90
29571;DHT22;16814;52.118;11.436;2023-03-14T11:34:29;13.70;99.90
29571;DHT22;16814;52.118;11.436;2023-03-14T11:37:07;13.70;99.90
29571;DHT22;16814;52.118;11.436;2023-03-14T11:39:41;13.80;99.90
29571;DHT22;16814;52.118;11.436;2023-03-14T11:42:14;13.80;99.90
29571;DHT22;16814;52.118;11.436;2023-03-14T11:44:44;13.80;99.90
29571;DHT22;16814;52.118;11.436;2023-03-14T11:47:19;13.90;99.90
29571;DHT22;16814;52.118;11.436;2023-03-14T11:49:53;13.80;99.90
29571;DHT22;16814;52.118;11.436;2023-03-14T11:54:59;14.00;99.90
29571;DHT22;16814;52.118;11.436;2023-03-14T11:57:27;14.10;99.90
29571;DHT22;16814;52.118;11.436;2023-03-14T12:02:33;14.40;99.90
29571;DHT22;16814;52.118;11.436;2023-03-14T12:10:26;14.60;99.90
29571;DHT22;16814;52.118;11.436;2023-03-14T12:12:52;14.50;99.90
29571;DHT22;16814;52.118;11.436;2023-03-14T12:15:22;14.30;99.90
29571;DHT22;16814;52.118;11.436;2023-03-14T12:17:54;14.30;99.90
29571;DHT22;16814;52.118;11.436;2023-03-14T12:20:21;14.40;99.90
29571;DHT22;16814;52.118;11.436;2023-03-14T12:25:22;14.30;99.90
29571;DHT22;16814;52.118;11.436;2023-03-14T12:30:29;14.00;99.90
29571;DHT22;16814;52.118;11.436;2023-03-14T12:33:26;13.90;99.90
29571;DHT22;16814;52.118;11.436;2023-03-14T12:36:00;14.00;99.90
29571;DHT22;16814;52.118;11.436;2023-03-14T12:38:32;14.00;99.90
29571;DHT22;16814;52.118;11.436;2023-03-14T12:43:51;13.90;99.90
29571;DHT22;16814;52.118;11.436;2023-03-14T12:48:44;13.90;99.90
29571;DHT22;16814;52.118;11.436;2023-03-14T12:51:18;13.80;99.90
29571;DHT22;16814;52.118;11.436;2023-03-14T12:56:28;13.70;99.90
29571;DHT22;16814;52.118;11.436;2023-03-14T13:04:48;13.20;99.90
29571;DHT22;16814;52.118;11.436;2023-03-14T13:07:35;13.30;99.90
29571;DHT22;16814;52.118;11.436;2023-03-14T13:12:38;13.50;99.90
29571;DHT22;16814;52.118;11.436;2023-03-14T13:15:24;13.50;99.90
29571;DHT22;16814;52.118;11.436;2023-03-14T13:17:52;13.60;99.90
29571;DHT22;16814;52.118;11.436;2023-03-14T13:20:24;13.40;99.90
29571;DHT22;16814;52.118;11.436;2023-03-14T13:22:52;13.30;99.90
29571;DHT22;16814;52.118;11.436;2023-03-14T13:25:18;13.30;99.90
29571;DHT22;16814;52.118;11.436;2023-03-14T13:27:46;13.20;99.90
29571;DHT22;16814;52.118;11.436;2023-03-14T13:30:19;13.00;99.90
29571;DHT22;16814;52.118;11.436;2023-03-14T13:32:46;12.50;99.90
29571;DHT22;16814;52.118;11.436;2023-03-14T13:35:22;11.70;99.90
29571;DHT22;16814;52.118;11.436;2023-03-14T13:37:53;10.90;99.90
29571;DHT22;16814;52.118;11.436;2023-03-14T13:40:33;10.20;99.90
29571;DHT22;16814;52.118;11.436;2023-03-14T13:43:06;9.80;99.90
29571;DHT22;16814;52.118;11.436;2023-03-14T13:46:14;9.50;99.90
29571;DHT22;16814;52.118;11.436;2023-03-14T13:48:48;9.30;99.90
29571;DHT22;16814;52.118;11.436;2023-03-14T13:51:18;9.30;99.90
29571;DHT22;16814;52.118;11.436;2023-03-14T13:53:52;9.20;99.90
29571;DHT22;16814;52.118;11.436;2023-03-14T13:56:20;9.00;99.90
29571;DHT22;16814;52.118;11.436;2023-03-14T13:58:46;8.80;99.90
29571;DHT22;16814;52.118;11.436;2023-03-14T14:01:26;8.60;99.90
29571;DHT22;16814;52.118;11.436;2023-03-14T14:03:55;8.60;99.90
29571;DHT22;16814;52.118;11.436;2023-03-14T14:06:33;8.50;99.90
29571;DHT22;16814;52.118;11.436;2023-03-14T14:09:10;8.50;99.90
29571;DHT22;16814;52.118;11.436;2023-03-14T14:14:15;8.20;99.90
29571;DHT22;16814;52.118;11.436;2023-03-14T14:16:43;7.80;99.90
29571;DHT22;16814;52.118;11.436;2023-03-14T14:19:10;7.50;99.90
29571;DHT22;16814;52.118;11.436;2023-03-14T14:21:37;7.30;99.90
29571;DHT22;16814;52.118;11.436;2023-03-14T14:24:03;7.10;99.90
29571;DHT22;16814;52.118;11.436;2023-03-14T14:26:28;7.00;99.90
29571;DHT22;16814;52.118;11.436;2023-03-14T14:29:04;6.80;99.90
29571;DHT22;16814;52.118;11.436;2023-03-14T14:31:29;6.50;99.90
29571;DHT22;16814;52.118;11.436;2023-03-14T14:34:03;6.30;99.90
29571;DHT22;16814;52.118;11.436;2023-03-14T14:36:38;6.20;99.90
29571;DHT22;16814;52.118;11.436;2023-03-14T14:39:23;6.20;99.90
29571;DHT22;16814;52.118;11.436;2023-03-14T14:41:50;6.20;99.90
29571;DHT22;16814;52.118;11.436;2023-03-14T14:44:24;6.20;99.90
29571;DHT22;16814;52.118;11.436;2023-03-14T14:46:55;6.20;99.90
29571;DHT22;16814;52.118;11.436;2023-03-14T14:49:20;6.10;99.90
29571;DHT22;16814;52.118;11.436;2023-03-14T14:51:50;6.00;99.90
29571;DHT22;16814;52.118;11.436;2023-03-14T14:54:19;5.80;99.90
29571;DHT22;16814;52.118;11.436;2023-03-14T14:56:52;5.80;99.90
29571;DHT22;16814;52.118;11.436;2023-03-14T14:59:27;5.60;99.90
29571;DHT22;16814;52.118;11.436;2023-03-14T15:02:01;5.60;99.90
29571;DHT22;16814;52.118;11.436;2023-03-14T15:04:30;5.50;99.90
29571;DHT22;16814;52.118;11.436;2023-03-14T15:06:56;5.50;99.90
29571;DHT22;16814;52.118;11.436;2023-03-14T15:09:22;5.50;99.90
29571;DHT22;16814;52.118;11.436;2023-03-14T15:11:48;5.50;99.90
29571;DHT22;16814;52.118;11.436;2023-03-14T15:14:13;5.20;99.90
29571;DHT22;16814;52.118;11.436;2023-03-14T15:16:40;5.10;99.90
29571;DHT22;16814;52.118;11.436;2023-03-14T15:19:16;5.00;99.90
29571;DHT22;16814;52.118;11.436;2023-03-14T15:21:43;4.90;99.90
29571;DHT22;16814;52.118;11.436;2023-03-14T15:24:09;4.80;99.90
29571;DHT22;16814;52.118;11.436;2023-03-14T15:26:35;4.90;99.90
29571;DHT22;16814;52.118;11.436;2023-03-14T15:29:00;4.90;99.90
29571;DHT22;16814;52.118;11.436;2023-03-14T15:31:26;4.90;99.90
29571;DHT22;16814;52.118;11.436;2023-03-14T15:33:51;5.00;99.90
29571;DHT22;16814;52.118;11.436;2023-03-14T15:36:29;4.90;99.90
29571;DHT22;16814;52.118;11.436;2023-03-14T15:38:56;4.80;99.90
29571;DHT22;16814;52.118;11.436;2023-03-14T15:41:24;4.80;99.90
29571;DHT22;16814;52.118;11.436;2023-03-14T15:43:50;4.80;99.90
29571;DHT22;16814;52.118;11.436;2023-03-14T15:46:16;4.80;99.90
29571;DHT22;16814;52.118;11.436;2023-03-14T15:48:44;4.80;99.90
29571;DHT22;16814;52.118;11.436;2023-03-14T15:51:10;4.90;99.90
29571;DHT22;16814;52.118;11.436;2023-03-14T15:53:35;5.00;99.90
29571;DHT22;16814;52.118;11.436;2023-03-14T15:56:03;5.10;99.90
29571;DHT22;16814;52.118;11.436;2023-03-14T15:58:29;5.10;99.90
29571;DHT22;16814;52.118;11.436;2023-03-14T16:00:54;5.20;99.90
29571;DHT22;16814;52.118;11.436;2023-03-14T16:03:20;5.30;99.90
29571;DHT22;16814;52.118;11.436;2023-03-14T16:05:46;5.40;99.90
29571;DHT22;16814;52.118;11.436;2023-03-14T16:08:12;5.50;99.90
29571;DHT22;16814;52.118;11.436;2023-03-14T16:10:37;5.30;99.90
29571;DHT22;16814;52.118;11.436;2023-03-14T16:13:04;5.20;99.90
29571;DHT22;16814;52.118;11.436;2023-03-14T16:15:29;5.20;99.90
29571;DHT22;16814;52.118;11.436;2023-03-14T16:17:55;5.20;99.90
29571;DHT22;16814;52.118;11.436;2023-03-14T16:20:22;5.20;99.90
29571;DHT22;16814;52.118;11.436;2023-03-14T16:22:48;5.30;99.90
29571;DHT22;16814;52.118;11.436;2023-03-14T16:25:14;5.30;99.90
29571;DHT22;16814;52.118;11.436;2023-03-14T16:27:41;5.20;99.90
29571;DHT22;16814;52.118;11.436;2023-03-14T16:30:09;5.30;99.90
29571;DHT22;16814;52.118;11.436;2023-03-14T16:32:35;5.30;99.90
29571;DHT22;16814;52.118;11.436;2023-03-14T16:35:01;5.40;99.90
29571;DHT22;16814;52.118;11.436;2023-03-14T16:37:26;5.40;99.90
29571;DHT22;16814;52.118;11.436;2023-03-14T16:39:53;5.40;99.90